Time;durP1;ratioP1;P1;durP2;ratioP2;P2;SDS_P1;SDS_P2;PMS_P1;PMS_P2;Temp;Humidity;BMP_temperature;BMP_pressure;BME280_temperature;BME280_humidity;BME280_pressure;Samples;Min_cycle;Max_cycle;Signal;HPM_P1;HPM_P2
2021/07/09 00:01:04;;;;;;;1.20;0.80;;;;;;;;;;4978121;28;20138;-42
2021/07/09 00:03:32;;;;;;;1.77;1.10;;;;;;;;;;4993746;28;20143;-42
2021/07/09 00:05:59;;;;;;;2.47;1.15;;;;;;;;;;4995214;28;20042;-43
2021/07/09 00:08:26;;;;;;;1.55;1.00;;;;;;;;;;4985594;28;20042;-43
2021/07/09 00:10:52;;;;;;;1.13;0.88;;;;;;;;;;4978951;28;20043;-43
2021/07/09 00:13:19;;;;;;;2.13;1.00;;;;;;;;;;4991745;28;20483;-43
2021/07/09 00:15:46;;;;;;;1.67;1.00;;;;;;;;;;4994734;28;20077;-43
2021/07/09 00:18:13;;;;;;;1.15;0.85;;;;;;;;;;4989434;28;20043;-43
2021/07/09 00:20:40;;;;;;;1.13;0.90;;;;;;;;;;4975015;28;20043;-44
2021/07/09 00:23:07;;;;;;;1.17;0.90;;;;;;;;;;4986734;28;20039;-42
2021/07/09 00:25:36;;;;;;;2.40;1.15;;;;;;;;;;4994270;28;20559;-45
2021/07/09 00:28:03;;;;;;;2.28;0.77;;;;;;;;;;4993983;28;20039;-42
2021/07/09 00:30:30;;;;;;;1.20;1.02;;;;;;;;;;4994336;28;20070;-45
2021/07/09 00:32:57;;;;;;;1.13;0.90;;;;;;;;;;4993688;28;20043;-44
2021/07/09 00:35:24;;;;;;;2.67;1.10;;;;;;;;;;4994142;28;20126;-45
2021/07/09 00:37:50;;;;;;;1.67;0.88;;;;;;;;;;4994197;28;20508;-43
2021/07/09 00:40:18;;;;;;;2.50;1.33;;;;;;;;;;4994253;28;20129;-43
2021/07/09 00:42:44;;;;;;;1.42;1.00;;;;;;;;;;4993773;28;20046;-44
2021/07/09 00:45:12;;;;;;;1.45;0.95;;;;;;;;;;4994157;28;20395;-42
2021/07/09 00:47:42;;;;;;;1.13;0.90;;;;;;;;;;4994562;28;20034;-42
2021/07/09 00:50:09;;;;;;;1.63;0.90;;;;;;;;;;4994048;28;20057;-42
2021/07/09 00:52:36;;;;;;;1.30;1.00;;;;;;;;;;4993073;28;20377;-42
2021/07/09 00:55:03;;;;;;;1.38;0.90;;;;;;;;;;4980624;28;20047;-42
2021/07/09 00:57:30;;;;;;;0.80;0.80;;;;;;;;;;4993776;28;20046;-43
2021/07/09 00:59:57;;;;;;;1.63;1.00;;;;;;;;;;4985899;28;20042;-43
2021/07/09 01:02:24;;;;;;;1.38;1.15;;;;;;;;;;4989034;28;20588;-43
2021/07/09 01:04:56;;;;;;;0.88;0.80;;;;;;;;;;4993495;28;20047;-43
2021/07/09 01:07:23;;;;;;;1.42;0.95;;;;;;;;;;4993717;28;20081;-43
2021/07/09 01:09:50;;;;;;;2.28;1.33;;;;;;;;;;4987962;28;20044;-42
2021/07/09 01:12:19;;;;;;;2.80;1.00;;;;;;;;;;4993130;28;20046;-42
2021/07/09 01:14:46;;;;;;;0.95;0.88;;;;;;;;;;4982387;28;20247;-42
2021/07/09 01:17:13;;;;;;;2.33;1.02;;;;;;;;;;4973901;28;20047;-53
2021/07/09 01:19:40;;;;;;;1.27;0.90;;;;;;;;;;4992303;28;20073;-43
2021/07/09 01:22:07;;;;;;;1.85;1.00;;;;;;;;;;4992906;28;20048;-43
2021/07/09 01:24:37;;;;;;;1.40;1.00;;;;;;;;;;4976925;28;20595;-46
2021/07/09 01:27:05;;;;;;;1.33;0.95;;;;;;;;;;4973887;28;20504;-42
2021/07/09 01:29:32;;;;;;;1.35;1.00;;;;;;;;;;4981463;28;20049;-42
2021/07/09 01:31:59;;;;;;;0.80;0.80;;;;;;;;;;4992581;28;20044;-42
2021/07/09 01:34:27;;;;;;;1.20;1.00;;;;;;;;;;4993165;28;20482;-42
2021/07/09 01:37:08;;;;;;;1.42;1.00;;;;;;;;;;4993106;28;20160;-43
2021/07/09 01:39:35;;;;;;;1.73;0.90;;;;;;;;;;4991838;28;20523;-42
2021/07/09 01:42:02;;;;;;;0.98;0.93;;;;;;;;;;4986053;28;20149;-45
2021/07/09 01:44:29;;;;;;;2.53;1.05;;;;;;;;;;4992858;28;20513;-43
2021/07/09 01:46:56;;;;;;;2.58;1.00;;;;;;;;;;4992511;28;20133;-42
2021/07/09 01:49:23;;;;;;;2.65;1.08;;;;;;;;;;4984631;28;20058;-45
2021/07/09 01:51:52;;;;;;;0.90;0.80;;;;;;;;;;4988944;28;20049;-43
2021/07/09 01:54:18;;;;;;;0.98;0.80;;;;;;;;;;4992383;28;20054;-42
2021/07/09 01:56:45;;;;;;;1.77;0.82;;;;;;;;;;4992761;28;20130;-46
2021/07/09 01:59:12;;;;;;;1.88;0.80;;;;;;;;;;4992928;28;20073;-42
2021/07/09 02:01:38;;;;;;;0.70;0.70;;;;;;;;;;4992800;28;20066;-43
2021/07/09 02:04:05;;;;;;;1.15;0.80;;;;;;;;;;4992847;28;20041;-44
2021/07/09 02:06:32;;;;;;;1.15;0.80;;;;;;;;;;4992828;28;20042;-42
2021/07/09 02:08:59;;;;;;;0.80;0.80;;;;;;;;;;4992639;28;20073;-42
2021/07/09 02:11:26;;;;;;;1.55;0.80;;;;;;;;;;4993105;28;20121;-45
2021/07/09 02:13:52;;;;;;;0.60;0.60;;;;;;;;;;4992247;28;20046;-45
2021/07/09 02:16:19;;;;;;;1.48;0.70;;;;;;;;;;4992273;28;20042;-45
2021/07/09 02:18:46;;;;;;;0.60;0.60;;;;;;;;;;4994439;28;20038;-45
2021/07/09 02:21:14;;;;;;;1.58;0.82;;;;;;;;;;4988912;28;20411;-44
2021/07/09 02:23:41;;;;;;;2.17;0.68;;;;;;;;;;4982394;28;20090;-42
2021/07/09 02:26:08;;;;;;;0.70;0.63;;;;;;;;;;4973156;28;20130;-41
2021/07/09 02:28:34;;;;;;;1.02;0.70;;;;;;;;;;5000966;28;20070;-43
2021/07/09 02:31:01;;;;;;;1.27;0.70;;;;;;;;;;4991178;28;20044;-41
2021/07/09 02:33:28;;;;;;;0.82;0.80;;;;;;;;;;5006379;28;20500;-41
2021/07/09 02:35:55;;;;;;;1.40;0.50;;;;;;;;;;4992578;28;20046;-42
2021/07/09 02:38:22;;;;;;;0.43;0.40;;;;;;;;;;4992063;28;20066;-43
2021/07/09 02:40:48;;;;;;;0.20;0.20;;;;;;;;;;4987150;28;20617;-42
2021/07/09 02:43:15;;;;;;;0.30;0.30;;;;;;;;;;4982380;28;20551;-43
2021/07/09 02:45:42;;;;;;;0.50;0.40;;;;;;;;;;5004856;28;20462;-43
2021/07/09 02:48:17;;;;;;;0.45;0.40;;;;;;;;;;4991790;28;20129;-44
2021/07/09 02:50:44;;;;;;;0.28;0.28;;;;;;;;;;4972648;28;20066;-44
2021/07/09 02:53:11;;;;;;;0.20;0.20;;;;;;;;;;4988256;28;20035;-43
2021/07/09 02:55:37;;;;;;;0.25;0.20;;;;;;;;;;4992253;28;20074;-42
2021/07/09 02:58:04;;;;;;;0.30;0.30;;;;;;;;;;4991607;28;20486;-42
2021/07/09 03:00:31;;;;;;;0.57;0.40;;;;;;;;;;4994429;28;20069;-42
2021/07/09 03:02:58;;;;;;;0.77;0.30;;;;;;;;;;4982941;28;20058;-45
2021/07/09 03:05:24;;;;;;;0.50;0.50;;;;;;;;;;4995241;28;20045;-44
2021/07/09 03:07:51;;;;;;;0.32;0.30;;;;;;;;;;4995475;28;20133;-43
2021/07/09 03:10:18;;;;;;;0.40;0.40;;;;;;;;;;4988122;28;20505;-43
2021/07/09 03:12:45;;;;;;;0.40;0.40;;;;;;;;;;4986638;28;20041;-42
2021/07/09 03:15:12;;;;;;;0.40;0.30;;;;;;;;;;5008938;28;20038;-42
2021/07/09 03:17:39;;;;;;;0.40;0.40;;;;;;;;;;4995400;28;20077;-45
2021/07/09 03:20:07;;;;;;;0.57;0.30;;;;;;;;;;4982327;28;20038;-42
2021/07/09 03:22:35;;;;;;;0.20;0.20;;;;;;;;;;4993679;28;20129;-45
2021/07/09 03:25:02;;;;;;;0.22;0.22;;;;;;;;;;4980078;28;20121;-47
2021/07/09 03:27:29;;;;;;;1.00;0.40;;;;;;;;;;4995243;28;20129;-45
2021/07/09 03:29:56;;;;;;;1.25;0.20;;;;;;;;;;4994981;28;20126;-44
2021/07/09 03:32:22;;;;;;;0.45;0.30;;;;;;;;;;4985529;28;20130;-44
2021/07/09 03:34:49;;;;;;;0.30;0.30;;;;;;;;;;4977913;28;20061;-44
2021/07/09 03:37:16;;;;;;;0.55;0.30;;;;;;;;;;4995174;28;20069;-42
2021/07/09 03:39:43;;;;;;;2.45;0.32;;;;;;;;;;4994600;28;20049;-42
2021/07/09 03:42:09;;;;;;;0.47;0.30;;;;;;;;;;4991696;28;20133;-43
2021/07/09 03:44:36;;;;;;;1.23;0.50;;;;;;;;;;4994710;28;20130;-46
2021/07/09 03:47:03;;;;;;;0.40;0.40;;;;;;;;;;4975486;28;20053;-43
2021/07/09 03:49:30;;;;;;;0.85;0.38;;;;;;;;;;4975446;28;20547;-45
2021/07/09 03:51:56;;;;;;;1.42;0.40;;;;;;;;;;4986095;28;20086;-43
2021/07/09 03:54:24;;;;;;;1.15;0.43;;;;;;;;;;4986121;28;20137;-47
2021/07/09 03:56:51;;;;;;;1.02;0.57;;;;;;;;;;4994442;28;20121;-43
2021/07/09 03:59:17;;;;;;;0.80;0.55;;;;;;;;;;5006267;23;20043;-41
2021/07/09 04:01:45;;;;;;;0.82;0.50;;;;;;;;;;4991993;28;20047;-39
2021/07/09 04:04:12;;;;;;;0.68;0.50;;;;;;;;;;4993519;28;20046;-41
2021/07/09 04:06:38;;;;;;;1.80;0.60;;;;;;;;;;4993705;28;20042;-43
2021/07/09 04:09:05;;;;;;;0.57;0.57;;;;;;;;;;4991794;28;20125;-42
2021/07/09 04:11:32;;;;;;;1.73;0.70;;;;;;;;;;4993018;28;20051;-47
2021/07/09 04:13:58;;;;;;;0.60;0.57;;;;;;;;;;4992334;28;20125;-43
2021/07/09 04:16:25;;;;;;;1.58;0.50;;;;;;;;;;4993580;28;20502;-42
2021/07/09 04:18:52;;;;;;;1.75;0.57;;;;;;;;;;4990745;28;20050;-45
2021/07/09 04:21:19;;;;;;;0.73;0.50;;;;;;;;;;4993456;28;20435;-43
2021/07/09 04:23:47;;;;;;;0.50;0.50;;;;;;;;;;4985597;28;20122;-43
2021/07/09 04:26:14;;;;;;;1.10;0.73;;;;;;;;;;4993394;28;20455;-43
2021/07/09 04:28:41;;;;;;;0.55;0.50;;;;;;;;;;4993057;28;20539;-46
2021/07/09 04:31:08;;;;;;;0.70;0.70;;;;;;;;;;4993401;28;20077;-43
2021/07/09 04:33:35;;;;;;;1.05;0.60;;;;;;;;;;4975775;28;20126;-46
2021/07/09 04:36:01;;;;;;;0.50;0.50;;;;;;;;;;4993395;28;20137;-43
2021/07/09 04:38:28;;;;;;;0.60;0.60;;;;;;;;;;5006726;28;20053;-40
2021/07/09 04:40:55;;;;;;;1.20;0.80;;;;;;;;;;4984347;28;20097;-42
2021/07/09 04:43:22;;;;;;;0.70;0.70;;;;;;;;;;4973041;28;20559;-42
2021/07/09 04:45:48;;;;;;;1.02;0.70;;;;;;;;;;4983327;28;20056;-41
2021/07/09 04:48:15;;;;;;;0.70;0.65;;;;;;;;;;4993073;28;20137;-42
2021/07/09 04:50:42;;;;;;;1.55;0.95;;;;;;;;;;4991756;28;20130;-44
2021/07/09 04:53:08;;;;;;;1.00;0.80;;;;;;;;;;4990097;28;20030;-42
2021/07/09 04:55:35;;;;;;;1.00;0.90;;;;;;;;;;4990366;28;20081;-45
2021/07/09 04:58:02;;;;;;;1.75;0.90;;;;;;;;;;4988639;28;20076;-42
2021/07/09 05:00:29;;;;;;;2.33;1.10;;;;;;;;;;4990878;28;20042;-41
2021/07/09 05:02:57;;;;;;;1.35;0.93;;;;;;;;;;4991277;28;20053;-43
2021/07/09 05:05:24;;;;;;;1.17;0.93;;;;;;;;;;4992043;28;20121;-41
2021/07/09 05:07:51;;;;;;;1.42;0.90;;;;;;;;;;4984908;28;20134;-42
2021/07/09 05:10:18;;;;;;;1.17;1.08;;;;;;;;;;4989304;28;20043;-42
2021/07/09 05:12:44;;;;;;;1.00;0.80;;;;;;;;;;4976747;28;20041;-41
2021/07/09 05:15:12;;;;;;;0.77;0.77;;;;;;;;;;4992333;28;20558;-43
2021/07/09 05:17:41;;;;;;;2.38;0.90;;;;;;;;;;4974965;28;20050;-41
2021/07/09 05:20:08;;;;;;;1.52;1.00;;;;;;;;;;4988524;28;20156;-41
2021/07/09 05:22:35;;;;;;;2.00;1.20;;;;;;;;;;4989410;28;20481;-42
2021/07/09 05:25:03;;;;;;;1.70;1.30;;;;;;;;;;4988989;28;20397;-41
2021/07/09 05:27:31;;;;;;;1.75;1.00;;;;;;;;;;4992284;28;20049;-43
2021/07/09 05:29:58;;;;;;;1.20;1.10;;;;;;;;;;4991875;28;20435;-42
2021/07/09 05:32:26;;;;;;;1.38;1.00;;;;;;;;;;4986862;28;20034;-42
2021/07/09 05:34:54;;;;;;;1.30;1.08;;;;;;;;;;4991795;28;20053;-42
2021/07/09 05:37:22;;;;;;;2.03;1.17;;;;;;;;;;4991673;28;20476;-43
2021/07/09 05:39:49;;;;;;;1.95;1.30;;;;;;;;;;4995010;28;20106;-42
2021/07/09 05:42:16;;;;;;;3.30;1.42;;;;;;;;;;4998614;28;20065;-42
2021/07/09 05:44:43;;;;;;;1.33;1.10;;;;;;;;;;4991329;28;20039;-40
2021/07/09 05:47:11;;;;;;;1.67;1.15;;;;;;;;;;4991135;28;20411;-41
2021/07/09 05:49:38;;;;;;;2.08;1.10;;;;;;;;;;4974582;28;20121;-43
2021/07/09 05:52:05;;;;;;;1.58;1.10;;;;;;;;;;4989924;28;20117;-42
2021/07/09 05:54:32;;;;;;;1.30;1.00;;;;;;;;;;4989534;28;20069;-42
2021/07/09 05:56:59;;;;;;;1.48;1.00;;;;;;;;;;4990013;28;20058;-42
2021/07/09 05:59:25;;;;;;;0.95;0.85;;;;;;;;;;4991317;28;20129;-42
2021/07/09 06:01:53;;;;;;;1.98;0.80;;;;;;;;;;4987056;28;20043;-42
2021/07/09 06:04:20;;;;;;;1.20;0.70;;;;;;;;;;4987732;28;20529;-44
2021/07/09 06:06:47;;;;;;;1.02;0.80;;;;;;;;;;4991678;28;20054;-44
2021/07/09 06:09:14;;;;;;;1.40;0.80;;;;;;;;;;4991781;28;20498;-44
2021/07/09 06:11:41;;;;;;;1.10;0.80;;;;;;;;;;4991447;28;20039;-45
2021/07/09 06:14:07;;;;;;;2.28;1.00;;;;;;;;;;4989480;28;20125;-44
2021/07/09 06:16:34;;;;;;;0.85;0.63;;;;;;;;;;4983117;28;20137;-41
2021/07/09 06:19:01;;;;;;;1.15;0.80;;;;;;;;;;4991451;28;20120;-46
2021/07/09 06:21:28;;;;;;;1.63;0.80;;;;;;;;;;4990103;28;20046;-44
2021/07/09 06:23:55;;;;;;;0.90;0.85;;;;;;;;;;4978948;28;20646;-45
2021/07/09 06:26:21;;;;;;;1.00;0.90;;;;;;;;;;4979983;28;20043;-44
2021/07/09 06:28:48;;;;;;;2.17;1.08;;;;;;;;;;4991297;28;20069;-41
2021/07/09 06:31:15;;;;;;;2.55;1.00;;;;;;;;;;4984963;28;20058;-43
2021/07/09 06:33:42;;;;;;;5.72;1.77;;;;;;;;;;4973217;28;20039;-44
2021/07/09 06:36:09;;;;;;;1.63;1.05;;;;;;;;;;4983347;28;20076;-44
2021/07/09 06:38:36;;;;;;;1.95;1.17;;;;;;;;;;4997676;28;20046;-42
2021/07/09 06:41:03;;;;;;;1.92;1.20;;;;;;;;;;4987542;28;20333;-42
2021/07/09 06:43:29;;;;;;;1.65;1.00;;;;;;;;;;4997129;28;20050;-44
2021/07/09 06:46:01;;;;;;;2.60;1.40;;;;;;;;;;4998239;28;20500;-42
2021/07/09 06:48:29;;;;;;;4.57;1.33;;;;;;;;;;4992344;28;20039;-43
2021/07/09 06:50:56;;;;;;;1.92;1.10;;;;;;;;;;4978165;28;20047;-42
2021/07/09 06:53:22;;;;;;;1.67;1.35;;;;;;;;;;4987802;28;20169;-43
2021/07/09 06:56:04;;;;;;;1.75;1.25;;;;;;;;;;4995039;28;20462;-42
2021/07/09 06:58:31;;;;;;;1.70;1.40;;;;;;;;;;4979725;28;20500;-46
2021/07/09 07:01:17;;;;;;;1.92;1.38;;;;;;;;;;4995825;28;20153;-42
2021/07/09 07:03:48;;;;;;;1.30;1.17;;;;;;;;;;4996869;28;20058;-43
2021/07/09 07:06:15;;;;;;;2.47;1.50;;;;;;;;;;4997281;28;20057;-45
2021/07/09 07:08:41;;;;;;;1.50;1.20;;;;;;;;;;4996101;28;20133;-44
2021/07/09 07:11:09;;;;;;;3.10;2.00;;;;;;;;;;4995281;28;20149;-41
2021/07/09 07:13:36;;;;;;;3.67;1.90;;;;;;;;;;4997168;28;20053;-42
2021/07/09 07:16:04;;;;;;;2.42;1.75;;;;;;;;;;4993655;28;20575;-42
2021/07/09 07:18:31;;;;;;;1.95;1.60;;;;;;;;;;4996382;28;20069;-44
2021/07/09 07:20:58;;;;;;;2.70;1.90;;;;;;;;;;4997168;28;20068;-43
2021/07/09 07:23:24;;;;;;;2.53;1.55;;;;;;;;;;4989040;28;20134;-43
2021/07/09 07:25:54;;;;;;;8.10;2.25;;;;;;;;;;4990484;28;20054;-45
2021/07/09 07:28:21;;;;;;;3.95;1.90;;;;;;;;;;4997521;28;20049;-42
2021/07/09 07:31:06;;;;;;;3.67;2.22;;;;;;;;;;4991109;28;20058;-43
2021/07/09 07:33:54;;;;;;;2.25;1.70;;;;;;;;;;4996488;28;20050;-45
2021/07/09 07:36:21;;;;;;;5.53;1.88;;;;;;;;;;4994198;28;20211;-42
2021/07/09 07:38:48;;;;;;;4.90;1.95;;;;;;;;;;4997062;28;20105;-44
2021/07/09 07:41:16;;;;;;;3.67;1.92;;;;;;;;;;4991983;28;20050;-42
2021/07/09 07:43:43;;;;;;;2.55;1.75;;;;;;;;;;4996417;28;20073;-44
2021/07/09 07:46:11;;;;;;;3.28;2.08;;;;;;;;;;4980759;28;20077;-43
2021/07/09 07:48:39;;;;;;;2.97;1.90;;;;;;;;;;4985159;28;20046;-43
2021/07/09 07:51:06;;;;;;;3.88;2.03;;;;;;;;;;5002719;28;20129;-44
2021/07/09 07:53:34;;;;;;;4.72;1.80;;;;;;;;;;4989978;28;20074;-45
2021/07/09 07:56:01;;;;;;;3.53;1.92;;;;;;;;;;4991392;28;20467;-42
2021/07/09 07:58:28;;;;;;;3.30;2.20;;;;;;;;;;4992143;28;20081;-43
2021/07/09 08:00:55;;;;;;;3.03;2.15;;;;;;;;;;4990272;28;20039;-42
2021/07/09 08:03:22;;;;;;;2.80;2.20;;;;;;;;;;4989336;28;20042;-46
2021/07/09 08:05:50;;;;;;;2.72;2.15;;;;;;;;;;4992545;28;20046;-42
2021/07/09 08:08:17;;;;;;;4.00;2.42;;;;;;;;;;4983974;28;20098;-44
2021/07/09 08:10:44;;;;;;;3.83;2.10;;;;;;;;;;4984907;28;20062;-44
2021/07/09 08:13:11;;;;;;;3.83;2.47;;;;;;;;;;4979427;28;20130;-44
2021/07/09 08:15:38;;;;;;;3.63;2.13;;;;;;;;;;4991988;28;20046;-42
2021/07/09 08:18:05;;;;;;;4.20;2.10;;;;;;;;;;4992590;28;20630;-42
2021/07/09 08:20:32;;;;;;;3.00;2.13;;;;;;;;;;4990843;28;20070;-42
2021/07/09 08:23:03;;;;;;;3.13;2.30;;;;;;;;;;4981776;28;20503;-42
2021/07/09 08:25:30;;;;;;;3.03;2.28;;;;;;;;;;4991551;28;20059;-42
2021/07/09 08:28:20;;;;;;;4.60;2.25;;;;;;;;;;4992552;28;20062;-43
2021/07/09 08:30:46;;;;;;;6.70;2.10;;;;;;;;;;4991505;28;20161;-43
2021/07/09 08:33:13;;;;;;;3.83;2.20;;;;;;;;;;4973341;28;20097;-43
2021/07/09 08:35:41;;;;;;;4.07;1.85;;;;;;;;;;4983362;28;20716;-43
2021/07/09 08:38:08;;;;;;;3.42;2.00;;;;;;;;;;4993092;28;20052;-54
2021/07/09 08:40:36;;;;;;;8.38;2.22;;;;;;;;;;4990235;28;20781;-43
2021/07/09 08:43:18;;;;;;;4.82;2.40;;;;;;;;;;4972833;28;20042;-42
2021/07/09 08:45:45;;;;;;;3.40;1.92;;;;;;;;;;4984126;28;20538;-43
2021/07/09 08:48:12;;;;;;;14.20;3.42;;;;;;;;;;4992940;28;20042;-46
2021/07/09 08:50:39;;;;;;;7.03;2.50;;;;;;;;;;4985128;28;20073;-44
2021/07/09 08:53:06;;;;;;;3.58;1.90;;;;;;;;;;4987678;28;20121;-43
2021/07/09 08:55:32;;;;;;;2.63;2.03;;;;;;;;;;4989602;28;20555;-42
2021/07/09 08:58:00;;;;;;;3.03;2.15;;;;;;;;;;4990728;28;20129;-42
2021/07/09 09:00:41;;;;;;;5.18;2.30;;;;;;;;;;4991609;28;20807;-44
2021/07/09 09:03:22;;;;;;;3.50;2.20;;;;;;;;;;4986334;28;20085;-42
2021/07/09 09:05:50;;;;;;;6.45;2.30;;;;;;;;;;4992351;28;20093;-44
2021/07/09 09:08:20;;;;;;;5.38;2.20;;;;;;;;;;4992537;28;20480;-42
2021/07/09 09:10:48;;;;;;;5.10;2.63;;;;;;;;;;4972758;28;20049;-43
2021/07/09 09:13:23;;;;;;;4.00;1.70;;;;;;;;;;4972444;28;20039;-41
2021/07/09 09:15:56;;;;;;;5.53;2.10;;;;;;;;;;4985630;28;20160;-43
2021/07/09 09:18:35;;;;;;;3.10;2.22;;;;;;;;;;4991592;28;20133;-42
2021/07/09 09:21:07;;;;;;;2.55;1.90;;;;;;;;;;4990428;28;20058;-42
2021/07/09 09:23:36;;;;;;;2.83;1.95;;;;;;;;;;4983031;28;20047;-41
2021/07/09 09:26:03;;;;;;;3.00;1.67;;;;;;;;;;4987687;28;20070;-43
2021/07/09 09:28:33;;;;;;;3.15;1.63;;;;;;;;;;4990755;28;20129;-45
2021/07/09 09:31:00;;;;;;;2.00;1.50;;;;;;;;;;4974145;28;20056;-44
2021/07/09 09:33:32;;;;;;;2.47;1.67;;;;;;;;;;4990280;28;20054;-42
2021/07/09 09:35:59;;;;;;;3.03;1.70;;;;;;;;;;4992327;28;20042;-43
2021/07/09 09:38:27;;;;;;;2.40;1.58;;;;;;;;;;4992239;28;20638;-41
2021/07/09 09:40:56;;;;;;;2.13;1.50;;;;;;;;;;4992280;28;20050;-43
2021/07/09 09:43:24;;;;;;;3.40;1.50;;;;;;;;;;4988862;28;20482;-43
2021/07/09 09:46:02;;;;;;;2.70;1.80;;;;;;;;;;4984787;28;20078;-43
2021/07/09 09:48:35;;;;;;;2.20;1.45;;;;;;;;;;4992385;28;20045;-43
2021/07/09 09:51:01;;;;;;;2.72;1.83;;;;;;;;;;4986880;28;20035;-43
2021/07/09 09:53:51;;;;;;;2.25;1.70;;;;;;;;;;4988065;28;20102;-42
2021/07/09 09:56:46;;;;;;;2.67;1.88;;;;;;;;;;4990948;28;20046;-42
2021/07/09 09:59:22;;;;;;;2.83;1.80;;;;;;;;;;4991952;28;20113;-42
2021/07/09 10:02:07;;;;;;;3.15;1.90;;;;;;;;;;4991371;28;20061;-42
2021/07/09 10:04:34;;;;;;;3.08;2.28;;;;;;;;;;4984212;28;20048;-42
2021/07/09 10:07:01;;;;;;;2.80;2.33;;;;;;;;;;4988491;28;20463;-44
2021/07/09 10:09:29;;;;;;;2.70;2.13;;;;;;;;;;4987404;28;20129;-42
2021/07/09 10:11:58;;;;;;;3.25;2.40;;;;;;;;;;4990398;28;20046;-43
2021/07/09 10:14:34;;;;;;;3.42;2.33;;;;;;;;;;4989374;28;20054;-43
2021/07/09 10:17:04;;;;;;;3.63;2.55;;;;;;;;;;4990520;28;20411;-43
2021/07/09 10:19:39;;;;;;;4.00;2.50;;;;;;;;;;5007061;28;20050;-44
2021/07/09 10:22:29;;;;;;;4.38;2.22;;;;;;;;;;4981725;28;20043;-45
2021/07/09 10:24:58;;;;;;;3.55;2.50;;;;;;;;;;4969941;28;20481;-43
2021/07/09 10:27:26;;;;;;;3.95;2.40;;;;;;;;;;4972647;28;20142;-44
2021/07/09 10:30:03;;;;;;;3.53;2.43;;;;;;;;;;4987247;28;20046;-43
2021/07/09 10:32:37;;;;;;;3.38;2.45;;;;;;;;;;4990895;28;20295;-44
2021/07/09 10:35:06;;;;;;;2.85;2.30;;;;;;;;;;4981259;28;20081;-42
2021/07/09 10:37:33;;;;;;;5.05;2.60;;;;;;;;;;4972019;28;20679;-43
2021/07/09 10:40:11;;;;;;;3.75;2.50;;;;;;;;;;4967020;28;20074;-44
2021/07/09 10:42:41;;;;;;;3.53;2.58;;;;;;;;;;4983765;28;20889;-46
2021/07/09 10:45:13;;;;;;;5.13;3.45;;;;;;;;;;4989634;28;20491;-43
2021/07/09 10:47:43;;;;;;;4.70;3.30;;;;;;;;;;4993074;28;20105;-44
2021/07/09 10:50:10;;;;;;;4.20;3.30;;;;;;;;;;4993390;28;20126;-44
2021/07/09 10:52:51;;;;;;;4.40;3.53;;;;;;;;;;4985658;28;20035;-43
2021/07/09 10:55:25;;;;;;;3.95;3.42;;;;;;;;;;4988606;28;20042;-44
2021/07/09 10:57:51;;;;;;;;;;;;;;;;;;4990283;28;20084;-43
2021/07/09 11:00:22;;;;;;;5.45;3.78;;;;;;;;;;4998448;28;19921;-45
2021/07/09 11:03:04;;;;;;;5.20;4.20;;;;;;;;;;4986748;28;20153;-41
2021/07/09 11:05:42;;;;;;;4.68;3.95;;;;;;;;;;4984687;28;20054;-44
2021/07/09 11:08:32;;;;;;;6.32;4.68;;;;;;;;;;4990211;28;20495;-45
2021/07/09 11:11:07;;;;;;;6.28;4.32;;;;;;;;;;4989691;28;20048;-45
2021/07/09 11:13:42;;;;;;;6.47;5.00;;;;;;;;;;4985219;28;20030;-44
2021/07/09 11:16:22;;;;;;;6.35;5.30;;;;;;;;;;4987183;28;20114;-43
2021/07/09 11:19:02;;;;;;;6.43;4.95;;;;;;;;;;4987756;28;20058;-44
2021/07/09 11:21:37;;;;;;;7.78;5.07;;;;;;;;;;4991227;28;20062;-46
2021/07/09 11:24:10;;;;;;;5.80;5.13;;;;;;;;;;4991843;28;20515;-44
2021/07/09 11:26:43;;;;;;;7.00;4.88;;;;;;;;;;4992893;28;20047;-45
2021/07/09 11:29:15;;;;;;;;;;;;;;;;;;4992615;28;20034;-45
2021/07/09 11:31:46;;;;;;;6.10;4.32;;;;;;;;;;4992147;28;19947;-42
2021/07/09 11:34:14;;;;;;;6.07;4.35;;;;;;;;;;4992475;28;20484;-43
2021/07/09 11:36:52;;;;;;;7.60;4.53;;;;;;;;;;4993392;28;20508;-44
2021/07/09 11:39:23;;;;;;;7.75;5.30;;;;;;;;;;4992056;28;20062;-43
2021/07/09 11:41:53;;;;;;;6.22;4.05;;;;;;;;;;4986517;28;20064;-44
2021/07/09 11:44:43;;;;;;;5.63;4.97;;;;;;;;;;4990446;28;20676;-44
2021/07/09 11:47:11;;;;;;;5.10;4.18;;;;;;;;;;4997232;22;20046;-46
2021/07/09 11:49:48;;;;;;;5.65;4.65;;;;;;;;;;4992732;28;20483;-45
2021/07/09 11:52:19;;;;;;;6.32;4.40;;;;;;;;;;4983899;28;20498;-44
2021/07/09 11:54:46;;;;;;;5.68;4.22;;;;;;;;;;4989399;28;20049;-44
2021/07/09 11:57:14;;;;;;;5.57;4.45;;;;;;;;;;4976510;28;20077;-46
2021/07/09 11:59:46;;;;;;;3.95;3.40;;;;;;;;;;4980735;28;20038;-44
2021/07/09 12:02:14;;;;;;;4.72;4.03;;;;;;;;;;4983262;28;20476;-46
2021/07/09 12:04:44;;;;;;;4.72;3.90;;;;;;;;;;4988232;28;20034;-44
2021/07/09 12:07:23;;;;;;;6.00;4.70;;;;;;;;;;4992679;28;20149;-42
2021/07/09 12:09:51;;;;;;;5.15;4.57;;;;;;;;;;4987226;28;20149;-47
2021/07/09 12:12:18;;;;;;;5.38;4.00;;;;;;;;;;4984649;28;20049;-46
2021/07/09 12:15:04;;;;;;;4.35;3.88;;;;;;;;;;4980108;28;20043;-44
2021/07/09 12:17:33;;;;;;;5.35;4.57;;;;;;;;;;4974170;28;20511;-45
2021/07/09 12:20:01;;;;;;;5.97;4.45;;;;;;;;;;4982355;28;20125;-44
2021/07/09 12:22:29;;;;;;;4.90;4.10;;;;;;;;;;4984047;28;20078;-46
2021/07/09 12:24:56;;;;;;;8.23;4.60;;;;;;;;;;4975661;28;20070;-45
2021/07/09 12:27:23;;;;;;;6.18;4.07;;;;;;;;;;4993165;28;20233;-45
2021/07/09 12:29:51;;;;;;;6.65;4.32;;;;;;;;;;4986548;28;20058;-46
2021/07/09 12:32:18;;;;;;;5.63;4.60;;;;;;;;;;4975683;28;20039;-47
2021/07/09 12:34:45;;;;;;;6.60;4.85;;;;;;;;;;4974537;28;20509;-44
2021/07/09 12:37:12;;;;;;;6.60;4.43;;;;;;;;;;4991352;28;20046;-45
2021/07/09 12:39:39;;;;;;;5.22;4.53;;;;;;;;;;4980250;28;20046;-45
2021/07/09 12:42:32;;;;;;;5.38;3.92;;;;;;;;;;4981602;28;20042;-45
2021/07/09 12:44:59;;;;;;;5.82;4.35;;;;;;;;;;4985350;28;20050;-45
2021/07/09 12:47:26;;;;;;;6.60;4.07;;;;;;;;;;4993110;28;20042;-44
2021/07/09 12:50:20;;;;;;;5.28;4.00;;;;;;;;;;4975206;28;20535;-46
2021/07/09 12:52:47;;;;;;;5.85;4.20;;;;;;;;;;4980092;28;20058;-44
2021/07/09 12:55:33;;;;;;;5.45;4.00;;;;;;;;;;4975062;28;20034;-47
2021/07/09 12:58:09;;;;;;;6.22;4.30;;;;;;;;;;4974745;28;20039;-47
2021/07/09 13:00:43;;;;;;;7.70;5.65;;;;;;;;;;4979873;28;20050;-46
2021/07/09 13:03:10;;;;;;;6.57;4.35;;;;;;;;;;4986548;28;20042;-47
2021/07/09 13:05:37;;;;;;;5.57;4.50;;;;;;;;;;4983213;28;20055;-44
2021/07/09 13:08:11;;;;;;;4.63;3.90;;;;;;;;;;4973681;28;20035;-47
2021/07/09 13:10:38;;;;;;;6.40;5.63;;;;;;;;;;4990867;28;20046;-48
2021/07/09 13:13:18;;;;;;;6.70;4.32;;;;;;;;;;4992245;28;20046;-45
2021/07/09 13:16:04;;;;;;;4.32;3.83;;;;;;;;;;4999727;28;20034;-46
2021/07/09 13:18:31;;;;;;;5.97;3.70;;;;;;;;;;4995840;28;20058;-45
2021/07/09 13:21:03;;;;;;;5.38;3.42;;;;;;;;;;4985839;28;20047;-44
2021/07/09 13:23:30;;;;;;;5.45;3.28;;;;;;;;;;4984991;28;20507;-44
2021/07/09 13:26:18;;;;;;;4.32;3.35;;;;;;;;;;4991753;28;20141;-44
2021/07/09 13:28:48;;;;;;;6.82;3.92;;;;;;;;;;4992507;28;20042;-45
2021/07/09 13:31:17;;;;;;;4.47;3.25;;;;;;;;;;4984907;28;20053;-45
2021/07/09 13:33:48;;;;;;;4.35;3.05;;;;;;;;;;4991221;28;20073;-43
2021/07/09 13:36:16;;;;;;;6.82;5.15;;;;;;;;;;4977161;28;20133;-46
2021/07/09 13:38:45;;;;;;;4.80;3.85;;;;;;;;;;4989986;28;20484;-44
2021/07/09 13:41:12;;;;;;;4.22;3.20;;;;;;;;;;4975713;28;20038;-45
2021/07/09 13:43:39;;;;;;;4.47;3.65;;;;;;;;;;4972310;28;20131;-43
2021/07/09 13:46:09;;;;;;;5.68;3.65;;;;;;;;;;4981103;28;20053;-45
2021/07/09 13:48:36;;;;;;;5.03;4.20;;;;;;;;;;4978926;28;20531;-45
2021/07/09 13:51:03;;;;;;;6.68;4.18;;;;;;;;;;4983512;28;20113;-44
2021/07/09 13:53:30;;;;;;;4.03;3.40;;;;;;;;;;4984039;28;20042;-44
2021/07/09 13:55:57;;;;;;;6.28;3.97;;;;;;;;;;4976225;28;20138;-45
2021/07/09 13:58:24;;;;;;;5.32;4.38;;;;;;;;;;4982053;28;20046;-43
2021/07/09 14:00:51;;;;;;;6.18;4.50;;;;;;;;;;4986676;28;20050;-43
2021/07/09 14:03:18;;;;;;;5.72;4.47;;;;;;;;;;4980698;28;20059;-42
2021/07/09 14:05:44;;;;;;;5.15;3.58;;;;;;;;;;4977928;28;20053;-45
2021/07/09 14:08:11;;;;;;;8.93;3.88;;;;;;;;;;4985685;28;20475;-44
2021/07/09 14:10:39;;;;;;;6.88;3.00;;;;;;;;;;4972943;28;20488;-46
2021/07/09 14:13:06;;;;;;;3.45;2.60;;;;;;;;;;4979178;28;20354;-46
2021/07/09 14:15:33;;;;;;;4.85;3.35;;;;;;;;;;4989217;28;20054;-43
2021/07/09 14:18:02;;;;;;;5.45;3.10;;;;;;;;;;4983148;28;20048;-44
2021/07/09 14:20:29;;;;;;;4.80;3.00;;;;;;;;;;4991800;28;20102;-44
2021/07/09 14:22:56;;;;;;;4.07;3.15;;;;;;;;;;4974613;28;20084;-43
2021/07/09 14:25:23;;;;;;;3.30;2.90;;;;;;;;;;4974655;28;20050;-43
2021/07/09 14:27:49;;;;;;;3.40;2.67;;;;;;;;;;4985203;28;20034;-42
2021/07/09 14:30:16;;;;;;;4.43;3.20;;;;;;;;;;4979648;28;20121;-45
2021/07/09 14:32:45;;;;;;;4.60;3.45;;;;;;;;;;4971738;28;20047;-44
2021/07/09 14:35:13;;;;;;;4.35;3.45;;;;;;;;;;4973686;28;20050;-43
2021/07/09 14:37:40;;;;;;;4.45;3.70;;;;;;;;;;4986525;28;20049;-46
2021/07/09 14:40:07;;;;;;;3.90;3.20;;;;;;;;;;4991137;28;20050;-43
2021/07/09 14:42:36;;;;;;;6.85;4.50;;;;;;;;;;4978801;28;20075;-44
2021/07/09 14:45:05;;;;;;;5.47;4.00;;;;;;;;;;4973177;28;20050;-43
2021/07/09 14:47:31;;;;;;;4.38;3.50;;;;;;;;;;4972247;28;20079;-43
2021/07/09 14:49:59;;;;;;;4.97;4.05;;;;;;;;;;4973989;28;20039;-44
2021/07/09 14:52:26;;;;;;;4.25;3.72;;;;;;;;;;4972888;28;20039;-44
2021/07/09 14:54:52;;;;;;;4.38;3.97;;;;;;;;;;4983377;28;20592;-42